sensor_id;sensor_type;location;lat;lon;timestamp;P1;durP1;ratioP1;P2;durP2;ratioP2
26484;SDS011;18083;50.560;7.262;2023-10-13T00:01:06;16.42;;;12.05;;
26484;SDS011;18083;50.560;7.262;2023-10-13T00:03:34;20.27;;;12.68;;
26484;SDS011;18083;50.560;7.262;2023-10-13T00:06:02;22.40;;;13.45;;
26484;SDS011;18083;50.560;7.262;2023-10-13T00:08:29;18.77;;;13.60;;
26484;SDS011;18083;50.560;7.262;2023-10-13T00:10:56;15.88;;;11.30;;
26484;SDS011;18083;50.560;7.262;2023-10-13T00:13:26;18.00;;;13.78;;
26484;SDS011;18083;50.560;7.262;2023-10-13T00:15:54;23.47;;;13.40;;
26484;SDS011;18083;50.560;7.262;2023-10-13T00:18:32;20.90;;;13.83;;
26484;SDS011;18083;50.560;7.262;2023-10-13T00:21:04;20.75;;;13.00;;
26484;SDS011;18083;50.560;7.262;2023-10-13T00:23:33;21.55;;;13.28;;
26484;SDS011;18083;50.560;7.262;2023-10-13T00:26:00;20.37;;;11.90;;
26484;SDS011;18083;50.560;7.262;2023-10-13T00:28:29;18.35;;;13.00;;
26484;SDS011;18083;50.560;7.262;2023-10-13T00:31:04;21.37;;;12.75;;
26484;SDS011;18083;50.560;7.262;2023-10-13T00:33:33;22.27;;;13.62;;
26484;SDS011;18083;50.560;7.262;2023-10-13T00:36:02;18.67;;;12.03;;
26484;SDS011;18083;50.560;7.262;2023-10-13T00:38:30;20.05;;;12.13;;
26484;SDS011;18083;50.560;7.262;2023-10-13T00:40:58;22.07;;;12.30;;
26484;SDS011;18083;50.560;7.262;2023-10-13T00:43:36;20.90;;;12.75;;
26484;SDS011;18083;50.560;7.262;2023-10-13T00:46:05;17.23;;;11.50;;
26484;SDS011;18083;50.560;7.262;2023-10-13T00:48:37;23.27;;;13.83;;
26484;SDS011;18083;50.560;7.262;2023-10-13T00:51:20;18.57;;;12.18;;
26484;SDS011;18083;50.560;7.262;2023-10-13T00:54:05;18.95;;;11.95;;
26484;SDS011;18083;50.560;7.262;2023-10-13T00:56:39;19.10;;;12.53;;
26484;SDS011;18083;50.560;7.262;2023-10-13T00:59:08;17.32;;;12.53;;
26484;SDS011;18083;50.560;7.262;2023-10-13T01:01:36;20.65;;;13.05;;
26484;SDS011;18083;50.560;7.262;2023-10-13T01:04:05;20.00;;;11.68;;
26484;SDS011;18083;50.560;7.262;2023-10-13T01:06:34;17.05;;;11.75;;
26484;SDS011;18083;50.560;7.262;2023-10-13T01:09:04;19.77;;;11.80;;
26484;SDS011;18083;50.560;7.262;2023-10-13T01:11:43;17.80;;;12.15;;
26484;SDS011;18083;50.560;7.262;2023-10-13T01:14:11;21.00;;;13.40;;
26484;SDS011;18083;50.560;7.262;2023-10-13T01:16:38;17.82;;;12.28;;
26484;SDS011;18083;50.560;7.262;2023-10-13T01:19:17;21.07;;;13.43;;
26484;SDS011;18083;50.560;7.262;2023-10-13T01:21:42;19.85;;;12.98;;
26484;SDS011;18083;50.560;7.262;2023-10-13T01:24:14;19.85;;;12.03;;
26484;SDS011;18083;50.560;7.262;2023-10-13T01:26:43;22.13;;;12.15;;
26484;SDS011;18083;50.560;7.262;2023-10-13T01:29:10;24.50;;;12.80;;
26484;SDS011;18083;50.560;7.262;2023-10-13T01:31:41;20.90;;;12.68;;
26484;SDS011;18083;50.560;7.262;2023-10-13T01:34:18;19.02;;;12.37;;
26484;SDS011;18083;50.560;7.262;2023-10-13T01:36:48;19.98;;;11.48;;
26484;SDS011;18083;50.560;7.262;2023-10-13T01:39:24;17.35;;;11.93;;
26484;SDS011;18083;50.560;7.262;2023-10-13T01:41:50;19.82;;;11.18;;
26484;SDS011;18083;50.560;7.262;2023-10-13T01:44:19;19.17;;;11.22;;
26484;SDS011;18083;50.560;7.262;2023-10-13T01:46:46;20.80;;;10.88;;
26484;SDS011;18083;50.560;7.262;2023-10-13T01:49:14;17.20;;;10.85;;
26484;SDS011;18083;50.560;7.262;2023-10-13T01:51:44;20.15;;;13.22;;
26484;SDS011;18083;50.560;7.262;2023-10-13T01:54:14;18.17;;;11.73;;
26484;SDS011;18083;50.560;7.262;2023-10-13T01:56:42;16.73;;;10.95;;
26484;SDS011;18083;50.560;7.262;2023-10-13T01:59:12;21.68;;;12.13;;
26484;SDS011;18083;50.560;7.262;2023-10-13T02:01:40;14.85;;;10.80;;
26484;SDS011;18083;50.560;7.262;2023-10-13T02:04:08;12.95;;;9.58;;
26484;SDS011;18083;50.560;7.262;2023-10-13T02:06:36;19.98;;;11.38;;
26484;SDS011;18083;50.560;7.262;2023-10-13T02:09:08;18.52;;;11.95;;
26484;SDS011;18083;50.560;7.262;2023-10-13T02:11:51;19.90;;;11.53;;
26484;SDS011;18083;50.560;7.262;2023-10-13T02:14:23;16.07;;;11.22;;
26484;SDS011;18083;50.560;7.262;2023-10-13T02:16:52;20.92;;;11.65;;
26484;SDS011;18083;50.560;7.262;2023-10-13T02:19:23;29.55;;;13.80;;
26484;SDS011;18083;50.560;7.262;2023-10-13T02:21:52;19.62;;;12.33;;
26484;SDS011;18083;50.560;7.262;2023-10-13T02:24:21;19.02;;;11.50;;
26484;SDS011;18083;50.560;7.262;2023-10-13T02:26:50;22.15;;;12.20;;
26484;SDS011;18083;50.560;7.262;2023-10-13T02:29:18;20.82;;;13.13;;
26484;SDS011;18083;50.560;7.262;2023-10-13T02:31:45;19.82;;;11.63;;
26484;SDS011;18083;50.560;7.262;2023-10-13T02:34:14;17.85;;;11.93;;
26484;SDS011;18083;50.560;7.262;2023-10-13T02:36:41;18.98;;;12.47;;
26484;SDS011;18083;50.560;7.262;2023-10-13T02:39:16;23.80;;;13.53;;
26484;SDS011;18083;50.560;7.262;2023-10-13T02:41:46;19.07;;;12.40;;
26484;SDS011;18083;50.560;7.262;2023-10-13T02:44:16;19.48;;;12.00;;
26484;SDS011;18083;50.560;7.262;2023-10-13T02:46:48;19.00;;;12.98;;
26484;SDS011;18083;50.560;7.262;2023-10-13T02:49:16;16.82;;;11.55;;
26484;SDS011;18083;50.560;7.262;2023-10-13T02:51:45;19.82;;;12.70;;
26484;SDS011;18083;50.560;7.262;2023-10-13T02:54:13;18.37;;;11.70;;
26484;SDS011;18083;50.560;7.262;2023-10-13T02:56:42;21.68;;;13.35;;
26484;SDS011;18083;50.560;7.262;2023-10-13T02:59:11;17.25;;;12.23;;
26484;SDS011;18083;50.560;7.262;2023-10-13T03:01:39;15.00;;;12.47;;
26484;SDS011;18083;50.560;7.262;2023-10-13T03:04:06;24.15;;;13.10;;
26484;SDS011;18083;50.560;7.262;2023-10-13T03:06:35;15.83;;;11.75;;
26484;SDS011;18083;50.560;7.262;2023-10-13T03:09:06;16.73;;;11.40;;
26484;SDS011;18083;50.560;7.262;2023-10-13T03:11:45;19.73;;;12.65;;
26484;SDS011;18083;50.560;7.262;2023-10-13T03:14:16;16.80;;;12.82;;
26484;SDS011;18083;50.560;7.262;2023-10-13T03:16:55;20.50;;;13.22;;
26484;SDS011;18083;50.560;7.262;2023-10-13T03:19:24;26.42;;;13.20;;
26484;SDS011;18083;50.560;7.262;2023-10-13T03:21:53;21.50;;;13.75;;
26484;SDS011;18083;50.560;7.262;2023-10-13T03:24:25;25.57;;;13.18;;
26484;SDS011;18083;50.560;7.262;2023-10-13T03:27:02;27.15;;;14.23;;
26484;SDS011;18083;50.560;7.262;2023-10-13T03:29:36;25.97;;;12.78;;
26484;SDS011;18083;50.560;7.262;2023-10-13T03:32:05;18.77;;;12.35;;
26484;SDS011;18083;50.560;7.262;2023-10-13T03:34:41;18.45;;;11.60;;
26484;SDS011;18083;50.560;7.262;2023-10-13T03:37:10;25.08;;;11.45;;
26484;SDS011;18083;50.560;7.262;2023-10-13T03:39:39;20.25;;;13.22;;
26484;SDS011;18083;50.560;7.262;2023-10-13T03:42:08;18.05;;;11.38;;
26484;SDS011;18083;50.560;7.262;2023-10-13T03:44:37;20.15;;;12.18;;
26484;SDS011;18083;50.560;7.262;2023-10-13T03:47:05;23.00;;;11.78;;
26484;SDS011;18083;50.560;7.262;2023-10-13T03:49:34;19.30;;;11.40;;
26484;SDS011;18083;50.560;7.262;2023-10-13T03:52:03;22.37;;;12.30;;
26484;SDS011;18083;50.560;7.262;2023-10-13T03:54:32;14.05;;;10.28;;
26484;SDS011;18083;50.560;7.262;2023-10-13T03:57:01;17.27;;;11.60;;
26484;SDS011;18083;50.560;7.262;2023-10-13T03:59:30;13.30;;;11.53;;
26484;SDS011;18083;50.560;7.262;2023-10-13T04:01:59;18.55;;;11.18;;
26484;SDS011;18083;50.560;7.262;2023-10-13T04:04:28;19.32;;;10.40;;
26484;SDS011;18083;50.560;7.262;2023-10-13T04:07:03;23.90;;;12.37;;
26484;SDS011;18083;50.560;7.262;2023-10-13T04:09:38;18.98;;;11.63;;
26484;SDS011;18083;50.560;7.262;2023-10-13T04:12:16;20.62;;;11.28;;
26484;SDS011;18083;50.560;7.262;2023-10-13T04:14:47;23.70;;;12.37;;
26484;SDS011;18083;50.560;7.262;2023-10-13T04:17:34;22.82;;;10.55;;
26484;SDS011;18083;50.560;7.262;2023-10-13T04:20:05;19.25;;;11.38;;
26484;SDS011;18083;50.560;7.262;2023-10-13T04:22:38;13.95;;;10.60;;
26484;SDS011;18083;50.560;7.262;2023-10-13T04:25:20;16.50;;;11.50;;
26484;SDS011;18083;50.560;7.262;2023-10-13T04:27:58;14.90;;;10.68;;
26484;SDS011;18083;50.560;7.262;2023-10-13T04:33:27;17.48;;;10.45;;
26484;SDS011;18083;50.560;7.262;2023-10-13T04:36:03;13.75;;;10.60;;
26484;SDS011;18083;50.560;7.262;2023-10-13T04:38:32;22.62;;;9.70;;
26484;SDS011;18083;50.560;7.262;2023-10-13T04:41:01;16.05;;;11.50;;
26484;SDS011;18083;50.560;7.262;2023-10-13T04:43:30;16.10;;;10.03;;
26484;SDS011;18083;50.560;7.262;2023-10-13T04:46:02;14.15;;;9.05;;
26484;SDS011;18083;50.560;7.262;2023-10-13T04:48:43;14.43;;;9.85;;
26484;SDS011;18083;50.560;7.262;2023-10-13T04:51:12;18.10;;;10.30;;
26484;SDS011;18083;50.560;7.262;2023-10-13T04:53:57;15.18;;;9.85;;
26484;SDS011;18083;50.560;7.262;2023-10-13T04:56:29;17.82;;;10.95;;
26484;SDS011;18083;50.560;7.262;2023-10-13T04:59:10;16.02;;;9.60;;
26484;SDS011;18083;50.560;7.262;2023-10-13T05:01:55;14.10;;;9.50;;
26484;SDS011;18083;50.560;7.262;2023-10-13T05:04:40;15.98;;;9.53;;
26484;SDS011;18083;50.560;7.262;2023-10-13T05:07:26;15.85;;;9.48;;
26484;SDS011;18083;50.560;7.262;2023-10-13T05:10:10;15.43;;;9.90;;
26484;SDS011;18083;50.560;7.262;2023-10-13T05:12:55;15.58;;;10.72;;
26484;SDS011;18083;50.560;7.262;2023-10-13T05:15:33;18.85;;;10.48;;
26484;SDS011;18083;50.560;7.262;2023-10-13T05:18:19;13.03;;;8.83;;
26484;SDS011;18083;50.560;7.262;2023-10-13T05:21:04;16.57;;;9.78;;
26484;SDS011;18083;50.560;7.262;2023-10-13T05:23:49;12.47;;;9.33;;
26484;SDS011;18083;50.560;7.262;2023-10-13T05:26:34;21.30;;;9.78;;
26484;SDS011;18083;50.560;7.262;2023-10-13T05:29:19;19.80;;;8.90;;
26484;SDS011;18083;50.560;7.262;2023-10-13T05:32:04;19.57;;;9.68;;
26484;SDS011;18083;50.560;7.262;2023-10-13T05:34:49;13.18;;;8.10;;
26484;SDS011;18083;50.560;7.262;2023-10-13T05:37:34;15.72;;;8.75;;
26484;SDS011;18083;50.560;7.262;2023-10-13T05:40:19;13.00;;;9.43;;
26484;SDS011;18083;50.560;7.262;2023-10-13T05:43:04;15.63;;;9.55;;
26484;SDS011;18083;50.560;7.262;2023-10-13T05:45:49;11.20;;;8.35;;
26484;SDS011;18083;50.560;7.262;2023-10-13T05:48:34;13.08;;;7.62;;
26484;SDS011;18083;50.560;7.262;2023-10-13T05:51:19;22.87;;;9.38;;
26484;SDS011;18083;50.560;7.262;2023-10-13T05:54:00;23.35;;;8.93;;
26484;SDS011;18083;50.560;7.262;2023-10-13T05:56:36;16.85;;;8.10;;
26484;SDS011;18083;50.560;7.262;2023-10-13T05:59:21;15.78;;;8.38;;
26484;SDS011;18083;50.560;7.262;2023-10-13T06:02:06;15.83;;;8.55;;
26484;SDS011;18083;50.560;7.262;2023-10-13T06:04:51;16.17;;;8.38;;
26484;SDS011;18083;50.560;7.262;2023-10-13T06:07:36;20.50;;;8.13;;
26484;SDS011;18083;50.560;7.262;2023-10-13T06:10:21;17.80;;;8.75;;
26484;SDS011;18083;50.560;7.262;2023-10-13T06:13:06;12.93;;;7.25;;
26484;SDS011;18083;50.560;7.262;2023-10-13T06:15:52;12.90;;;7.58;;
26484;SDS011;18083;50.560;7.262;2023-10-13T06:18:37;14.58;;;8.43;;
26484;SDS011;18083;50.560;7.262;2023-10-13T06:21:22;19.75;;;7.55;;
26484;SDS011;18083;50.560;7.262;2023-10-13T06:24:07;16.07;;;7.47;;
26484;SDS011;18083;50.560;7.262;2023-10-13T06:26:52;21.55;;;8.95;;
26484;SDS011;18083;50.560;7.262;2023-10-13T06:29:37;12.28;;;7.40;;
26484;SDS011;18083;50.560;7.262;2023-10-13T06:32:05;16.97;;;7.42;;
26484;SDS011;18083;50.560;7.262;2023-10-13T06:34:34;20.48;;;8.80;;
26484;SDS011;18083;50.560;7.262;2023-10-13T06:37:06;12.63;;;8.10;;
26484;SDS011;18083;50.560;7.262;2023-10-13T06:39:35;16.82;;;7.78;;
26484;SDS011;18083;50.560;7.262;2023-10-13T06:42:02;9.38;;;6.87;;
26484;SDS011;18083;50.560;7.262;2023-10-13T06:44:30;20.15;;;7.70;;
26484;SDS011;18083;50.560;7.262;2023-10-13T06:46:58;16.27;;;6.83;;
26484;SDS011;18083;50.560;7.262;2023-10-13T06:49:27;14.33;;;7.80;;
26484;SDS011;18083;50.560;7.262;2023-10-13T06:51:55;12.35;;;6.65;;
26484;SDS011;18083;50.560;7.262;2023-10-13T06:54:24;27.00;;;9.03;;
26484;SDS011;18083;50.560;7.262;2023-10-13T06:56:51;16.12;;;7.58;;
26484;SDS011;18083;50.560;7.262;2023-10-13T06:59:19;18.20;;;6.92;;
26484;SDS011;18083;50.560;7.262;2023-10-13T07:01:48;14.07;;;6.65;;
26484;SDS011;18083;50.560;7.262;2023-10-13T07:04:17;18.40;;;7.92;;
26484;SDS011;18083;50.560;7.262;2023-10-13T07:06:45;18.25;;;6.95;;
26484;SDS011;18083;50.560;7.262;2023-10-13T07:09:16;15.70;;;7.45;;
26484;SDS011;18083;50.560;7.262;2023-10-13T07:12:03;12.85;;;6.15;;
26484;SDS011;18083;50.560;7.262;2023-10-13T07:14:33;14.13;;;7.12;;
26484;SDS011;18083;50.560;7.262;2023-10-13T07:17:01;17.98;;;5.97;;
26484;SDS011;18083;50.560;7.262;2023-10-13T07:19:30;15.50;;;6.33;;
26484;SDS011;18083;50.560;7.262;2023-10-13T07:21:58;12.40;;;6.25;;
26484;SDS011;18083;50.560;7.262;2023-10-13T07:24:26;17.75;;;7.40;;
26484;SDS011;18083;50.560;7.262;2023-10-13T07:26:55;14.23;;;5.87;;
26484;SDS011;18083;50.560;7.262;2023-10-13T07:29:26;13.25;;;6.87;;
26484;SDS011;18083;50.560;7.262;2023-10-13T07:31:54;16.93;;;7.10;;
26484;SDS011;18083;50.560;7.262;2023-10-13T07:34:21;20.72;;;6.90;;
26484;SDS011;18083;50.560;7.262;2023-10-13T07:36:53;15.50;;;6.75;;
26484;SDS011;18083;50.560;7.262;2023-10-13T07:39:28;18.92;;;6.30;;
26484;SDS011;18083;50.560;7.262;2023-10-13T07:41:57;16.20;;;6.67;;
26484;SDS011;18083;50.560;7.262;2023-10-13T07:44:35;17.20;;;6.65;;
26484;SDS011;18083;50.560;7.262;2023-10-13T07:47:03;18.20;;;6.70;;
26484;SDS011;18083;50.560;7.262;2023-10-13T07:49:35;12.90;;;6.75;;
26484;SDS011;18083;50.560;7.262;2023-10-13T07:52:06;16.85;;;5.75;;
26484;SDS011;18083;50.560;7.262;2023-10-13T07:54:48;18.52;;;6.65;;
26484;SDS011;18083;50.560;7.262;2023-10-13T07:57:17;16.77;;;6.53;;
26484;SDS011;18083;50.560;7.262;2023-10-13T07:59:45;14.65;;;5.62;;
26484;SDS011;18083;50.560;7.262;2023-10-13T08:02:16;11.45;;;5.55;;
26484;SDS011;18083;50.560;7.262;2023-10-13T08:04:45;12.63;;;6.85;;
26484;SDS011;18083;50.560;7.262;2023-10-13T08:07:13;15.53;;;6.55;;
26484;SDS011;18083;50.560;7.262;2023-10-13T08:09:41;13.25;;;5.80;;
26484;SDS011;18083;50.560;7.262;2023-10-13T08:12:09;13.68;;;6.08;;
26484;SDS011;18083;50.560;7.262;2023-10-13T08:14:38;8.23;;;5.35;;
26484;SDS011;18083;50.560;7.262;2023-10-13T08:17:07;16.30;;;6.47;;
26484;SDS011;18083;50.560;7.262;2023-10-13T08:19:36;9.98;;;6.25;;
26484;SDS011;18083;50.560;7.262;2023-10-13T08:22:08;12.03;;;6.10;;
26484;SDS011;18083;50.560;7.262;2023-10-13T08:24:47;15.18;;;5.00;;
26484;SDS011;18083;50.560;7.262;2023-10-13T08:27:18;9.25;;;5.30;;
26484;SDS011;18083;50.560;7.262;2023-10-13T08:30:04;14.13;;;5.37;;
26484;SDS011;18083;50.560;7.262;2023-10-13T08:32:49;20.05;;;5.87;;
26484;SDS011;18083;50.560;7.262;2023-10-13T08:35:28;11.90;;;5.75;;
26484;SDS011;18083;50.560;7.262;2023-10-13T08:38:02;16.70;;;5.85;;
26484;SDS011;18083;50.560;7.262;2023-10-13T08:40:34;12.53;;;6.47;;
26484;SDS011;18083;50.560;7.262;2023-10-13T08:43:20;12.88;;;5.28;;
26484;SDS011;18083;50.560;7.262;2023-10-13T08:45:49;9.30;;;5.42;;
26484;SDS011;18083;50.560;7.262;2023-10-13T08:48:18;21.33;;;6.30;;
26484;SDS011;18083;50.560;7.262;2023-10-13T08:50:46;14.90;;;5.78;;
26484;SDS011;18083;50.560;7.262;2023-10-13T08:58:34;14.47;;;6.03;;
26484;SDS011;18083;50.560;7.262;2023-10-13T09:01:25;13.25;;;6.40;;
26484;SDS011;18083;50.560;7.262;2023-10-13T09:04:21;8.83;;;5.58;;
26484;SDS011;18083;50.560;7.262;2023-10-13T09:06:48;12.13;;;6.33;;
26484;SDS011;18083;50.560;7.262;2023-10-13T09:09:45;17.12;;;6.22;;
26484;SDS011;18083;50.560;7.262;2023-10-13T09:12:15;12.40;;;5.55;;
26484;SDS011;18083;50.560;7.262;2023-10-13T09:14:50;10.00;;;5.30;;
26484;SDS011;18083;50.560;7.262;2023-10-13T09:17:14;10.80;;;5.40;;
26484;SDS011;18083;50.560;7.262;2023-10-13T09:19:51;10.93;;;5.60;;
26484;SDS011;18083;50.560;7.262;2023-10-13T09:22:25;9.55;;;5.37;;
26484;SDS011;18083;50.560;7.262;2023-10-13T09:24:59;13.40;;;6.45;;
26484;SDS011;18083;50.560;7.262;2023-10-13T09:27:27;8.93;;;6.00;;
26484;SDS011;18083;50.560;7.262;2023-10-13T09:29:56;16.05;;;6.33;;
26484;SDS011;18083;50.560;7.262;2023-10-13T09:32:24;9.18;;;5.53;;
26484;SDS011;18083;50.560;7.262;2023-10-13T09:34:53;7.67;;;5.10;;
26484;SDS011;18083;50.560;7.262;2023-10-13T09:37:24;13.48;;;6.72;;
26484;SDS011;18083;50.560;7.262;2023-10-13T09:39:53;9.45;;;6.55;;
26484;SDS011;18083;50.560;7.262;2023-10-13T09:42:22;13.98;;;6.45;;
26484;SDS011;18083;50.560;7.262;2023-10-13T09:44:53;12.15;;;6.50;;
26484;SDS011;18083;50.560;7.262;2023-10-13T09:47:23;10.78;;;6.50;;
26484;SDS011;18083;50.560;7.262;2023-10-13T09:49:53;11.08;;;6.03;;
26484;SDS011;18083;50.560;7.262;2023-10-13T09:52:24;12.47;;;6.30;;
26484;SDS011;18083;50.560;7.262;2023-10-13T09:55:29;9.38;;;5.80;;
26484;SDS011;18083;50.560;7.262;2023-10-13T09:57:31;13.70;;;6.75;;
26484;SDS011;18083;50.560;7.262;2023-10-13T10:00:10;12.10;;;6.03;;
26484;SDS011;18083;50.560;7.262;2023-10-13T10:02:35;14.38;;;6.37;;
26484;SDS011;18083;50.560;7.262;2023-10-13T10:05:05;12.25;;;6.92;;
26484;SDS011;18083;50.560;7.262;2023-10-13T10:07:40;7.40;;;5.62;;
26484;SDS011;18083;50.560;7.262;2023-10-13T10:10:09;15.40;;;5.83;;
26484;SDS011;18083;50.560;7.262;2023-10-13T10:12:47;11.73;;;6.53;;
26484;SDS011;18083;50.560;7.262;2023-10-13T10:18:03;11.50;;;6.22;;
26484;SDS011;18083;50.560;7.262;2023-10-13T10:20:33;13.22;;;7.47;;
26484;SDS011;18083;50.560;7.262;2023-10-13T10:23:07;9.33;;;6.20;;
26484;SDS011;18083;50.560;7.262;2023-10-13T10:25:43;9.65;;;6.67;;
26484;SDS011;18083;50.560;7.262;2023-10-13T10:28:12;10.03;;;6.47;;
26484;SDS011;18083;50.560;7.262;2023-10-13T10:30:43;8.20;;;6.62;;
26484;SDS011;18083;50.560;7.262;2023-10-13T10:33:11;8.90;;;5.95;;
26484;SDS011;18083;50.560;7.262;2023-10-13T10:35:42;13.35;;;7.08;;
26484;SDS011;18083;50.560;7.262;2023-10-13T10:38:13;12.53;;;6.30;;
26484;SDS011;18083;50.560;7.262;2023-10-13T10:40:54;12.82;;;7.60;;
26484;SDS011;18083;50.560;7.262;2023-10-13T10:43:28;8.85;;;5.78;;
26484;SDS011;18083;50.560;7.262;2023-10-13T10:45:57;11.50;;;6.70;;
26484;SDS011;18083;50.560;7.262;2023-10-13T10:48:27;9.38;;;5.80;;
26484;SDS011;18083;50.560;7.262;2023-10-13T10:51:00;9.40;;;5.87;;
26484;SDS011;18083;50.560;7.262;2023-10-13T10:53:29;7.47;;;5.53;;
26484;SDS011;18083;50.560;7.262;2023-10-13T10:56:04;11.60;;;5.75;;
26484;SDS011;18083;50.560;7.262;2023-10-13T10:58:35;11.12;;;5.85;;
26484;SDS011;18083;50.560;7.262;2023-10-13T11:01:04;14.87;;;6.87;;
26484;SDS011;18083;50.560;7.262;2023-10-13T11:03:33;11.50;;;5.78;;
26484;SDS011;18083;50.560;7.262;2023-10-13T11:06:02;9.15;;;6.60;;
26484;SDS011;18083;50.560;7.262;2023-10-13T11:08:31;12.50;;;6.62;;
26484;SDS011;18083;50.560;7.262;2023-10-13T11:10:58;10.68;;;5.33;;
26484;SDS011;18083;50.560;7.262;2023-10-13T11:13:44;12.37;;;5.42;;
26484;SDS011;18083;50.560;7.262;2023-10-13T11:16:10;13.10;;;6.37;;
26484;SDS011;18083;50.560;7.262;2023-10-13T11:18:41;10.98;;;5.72;;
26484;SDS011;18083;50.560;7.262;2023-10-13T11:21:14;12.63;;;5.47;;
26484;SDS011;18083;50.560;7.262;2023-10-13T11:29:38;9.75;;;5.87;;
26484;SDS011;18083;50.560;7.262;2023-10-13T11:32:06;11.25;;;5.80;;
26484;SDS011;18083;50.560;7.262;2023-10-13T11:34:34;13.25;;;5.00;;
26484;SDS011;18083;50.560;7.262;2023-10-13T11:37:08;9.23;;;5.25;;
26484;SDS011;18083;50.560;7.262;2023-10-13T11:39:42;10.60;;;5.72;;
26484;SDS011;18083;50.560;7.262;2023-10-13T11:42:10;11.85;;;6.62;;
26484;SDS011;18083;50.560;7.262;2023-10-13T11:44:37;15.30;;;5.75;;
26484;SDS011;18083;50.560;7.262;2023-10-13T11:47:06;9.85;;;5.55;;
26484;SDS011;18083;50.560;7.262;2023-10-13T11:49:35;8.13;;;5.08;;
26484;SDS011;18083;50.560;7.262;2023-10-13T11:52:03;10.82;;;5.12;;
26484;SDS011;18083;50.560;7.262;2023-10-13T11:54:42;8.98;;;4.87;;
26484;SDS011;18083;50.560;7.262;2023-10-13T11:57:10;11.45;;;4.85;;
26484;SDS011;18083;50.560;7.262;2023-10-13T11:59:37;9.30;;;5.22;;
26484;SDS011;18083;50.560;7.262;2023-10-13T12:02:06;10.48;;;5.20;;
26484;SDS011;18083;50.560;7.262;2023-10-13T12:04:38;10.48;;;5.65;;
26484;SDS011;18083;50.560;7.262;2023-10-13T12:07:23;16.17;;;5.47;;
26484;SDS011;18083;50.560;7.262;2023-10-13T12:09:53;12.80;;;5.45;;
26484;SDS011;18083;50.560;7.262;2023-10-13T12:12:25;16.75;;;6.83;;
26484;SDS011;18083;50.560;7.262;2023-10-13T12:17:49;12.15;;;5.42;;
26484;SDS011;18083;50.560;7.262;2023-10-13T12:20:16;9.48;;;5.60;;
26484;SDS011;18083;50.560;7.262;2023-10-13T12:22:48;9.13;;;5.20;;
26484;SDS011;18083;50.560;7.262;2023-10-13T12:25:19;9.08;;;4.50;;
26484;SDS011;18083;50.560;7.262;2023-10-13T12:27:54;8.48;;;5.15;;
26484;SDS011;18083;50.560;7.262;2023-10-13T12:30:26;17.62;;;5.53;;
26484;SDS011;18083;50.560;7.262;2023-10-13T12:33:03;8.35;;;5.80;;
26484;SDS011;18083;50.560;7.262;2023-10-13T12:35:45;11.73;;;6.00;;
26484;SDS011;18083;50.560;7.262;2023-10-13T12:38:06;6.90;;;5.15;;
26484;SDS011;18083;50.560;7.262;2023-10-13T12:40:35;11.45;;;5.87;;
26484;SDS011;18083;50.560;7.262;2023-10-13T12:43:20;14.55;;;5.67;;
26484;SDS011;18083;50.560;7.262;2023-10-13T12:46:05;10.55;;;5.47;;
26484;SDS011;18083;50.560;7.262;2023-10-13T12:48:50;8.20;;;5.08;;
26484;SDS011;18083;50.560;7.262;2023-10-13T12:51:35;12.82;;;5.58;;
26484;SDS011;18083;50.560;7.262;2023-10-13T12:54:04;10.15;;;5.58;;
26484;SDS011;18083;50.560;7.262;2023-10-13T12:56:32;10.40;;;5.70;;
26484;SDS011;18083;50.560;7.262;2023-10-13T12:59:00;7.40;;;4.85;;
26484;SDS011;18083;50.560;7.262;2023-10-13T13:01:30;11.00;;;6.22;;
26484;SDS011;18083;50.560;7.262;2023-10-13T13:04:00;10.68;;;5.40;;
26484;SDS011;18083;50.560;7.262;2023-10-13T13:06:29;13.72;;;5.60;;
26484;SDS011;18083;50.560;7.262;2023-10-13T13:08:57;11.85;;;5.75;;
26484;SDS011;18083;50.560;7.262;2023-10-13T13:11:25;11.33;;;5.62;;
26484;SDS011;18083;50.560;7.262;2023-10-13T13:13:54;8.28;;;4.87;;
26484;SDS011;18083;50.560;7.262;2023-10-13T13:16:21;8.55;;;6.03;;
26484;SDS011;18083;50.560;7.262;2023-10-13T13:18:53;9.55;;;5.40;;
26484;SDS011;18083;50.560;7.262;2023-10-13T13:21:21;8.70;;;5.37;;
26484;SDS011;18083;50.560;7.262;2023-10-13T13:23:51;10.08;;;5.60;;
26484;SDS011;18083;50.560;7.262;2023-10-13T13:48:25;8.08;;;4.90;;
26484;SDS011;18083;50.560;7.262;2023-10-13T13:50:53;9.35;;;6.12;;
26484;SDS011;18083;50.560;7.262;2023-10-13T13:53:22;10.48;;;5.22;;
26484;SDS011;18083;50.560;7.262;2023-10-13T13:59:06;15.20;;;6.08;;
26484;SDS011;18083;50.560;7.262;2023-10-13T14:01:35;9.08;;;5.42;;
26484;SDS011;18083;50.560;7.262;2023-10-13T14:04:03;11.53;;;5.78;;
26484;SDS011;18083;50.560;7.262;2023-10-13T14:06:32;14.58;;;5.80;;
26484;SDS011;18083;50.560;7.262;2023-10-13T14:09:00;11.65;;;5.42;;
26484;SDS011;18083;50.560;7.262;2023-10-13T14:11:44;8.23;;;5.33;;
26484;SDS011;18083;50.560;7.262;2023-10-13T14:14:25;9.60;;;5.85;;
26484;SDS011;18083;50.560;7.262;2023-10-13T14:16:54;12.20;;;5.60;;
26484;SDS011;18083;50.560;7.262;2023-10-13T14:19:27;12.80;;;5.78;;
26484;SDS011;18083;50.560;7.262;2023-10-13T14:21:57;14.10;;;6.25;;
26484;SDS011;18083;50.560;7.262;2023-10-13T14:24:25;10.25;;;5.40;;
26484;SDS011;18083;50.560;7.262;2023-10-13T14:26:57;11.73;;;5.50;;
26484;SDS011;18083;50.560;7.262;2023-10-13T14:42:51;9.70;;;5.47;;
26484;SDS011;18083;50.560;7.262;2023-10-13T14:48:05;6.10;;;5.50;;
26484;SDS011;18083;50.560;7.262;2023-10-13T14:53:37;6.80;;;5.22;;
26484;SDS011;18083;50.560;7.262;2023-10-13T14:56:06;12.47;;;4.95;;
26484;SDS011;18083;50.560;7.262;2023-10-13T14:58:35;13.03;;;7.03;;
26484;SDS011;18083;50.560;7.262;2023-10-13T15:01:02;9.43;;;5.35;;
26484;SDS011;18083;50.560;7.262;2023-10-13T15:03:31;10.28;;;5.05;;
26484;SDS011;18083;50.560;7.262;2023-10-13T15:06:00;11.55;;;5.67;;
26484;SDS011;18083;50.560;7.262;2023-10-13T15:08:27;7.75;;;4.78;;
26484;SDS011;18083;50.560;7.262;2023-10-13T15:10:55;9.48;;;4.97;;
26484;SDS011;18083;50.560;7.262;2023-10-13T15:13:26;8.98;;;5.05;;
26484;SDS011;18083;50.560;7.262;2023-10-13T15:15:54;11.60;;;5.42;;
26484;SDS011;18083;50.560;7.262;2023-10-13T15:18:21;9.85;;;4.67;;
26484;SDS011;18083;50.560;7.262;2023-10-13T15:20:49;12.50;;;5.55;;
26484;SDS011;18083;50.560;7.262;2023-10-13T15:23:16;11.00;;;5.30;;
26484;SDS011;18083;50.560;7.262;2023-10-13T15:25:45;6.78;;;4.92;;
26484;SDS011;18083;50.560;7.262;2023-10-13T15:28:16;13.10;;;5.55;;
26484;SDS011;18083;50.560;7.262;2023-10-13T15:30:45;11.48;;;5.55;;
26484;SDS011;18083;50.560;7.262;2023-10-13T15:33:14;10.10;;;5.78;;
26484;SDS011;18083;50.560;7.262;2023-10-13T15:35:41;9.05;;;5.60;;
26484;SDS011;18083;50.560;7.262;2023-10-13T15:38:10;6.40;;;4.58;;
26484;SDS011;18083;50.560;7.262;2023-10-13T15:40:43;8.23;;;4.90;;
26484;SDS011;18083;50.560;7.262;2023-10-13T15:43:10;10.53;;;5.65;;
26484;SDS011;18083;50.560;7.262;2023-10-13T15:45:38;8.80;;;5.83;;
26484;SDS011;18083;50.560;7.262;2023-10-13T15:48:06;7.50;;;4.60;;
26484;SDS011;18083;50.560;7.262;2023-10-13T15:50:37;11.78;;;5.90;;
26484;SDS011;18083;50.560;7.262;2023-10-13T15:53:06;10.68;;;5.25;;
26484;SDS011;18083;50.560;7.262;2023-10-13T15:55:37;8.83;;;6.17;;
26484;SDS011;18083;50.560;7.262;2023-10-13T15:58:04;11.12;;;6.50;;
26484;SDS011;18083;50.560;7.262;2023-10-13T16:00:35;9.45;;;4.42;;
26484;SDS011;18083;50.560;7.262;2023-10-13T16:03:03;8.30;;;5.35;;
26484;SDS011;18083;50.560;7.262;2023-10-13T16:05:32;11.57;;;5.30;;
26484;SDS011;18083;50.560;7.262;2023-10-13T16:08:03;11.25;;;5.25;;